Casar, North Carolina
Current Conditions -  °F | °C
As of 7:55 PM on Saturday 22 Nov 2014 (Local Time) from KEHO Reporting Station
Clear Clear  
Wind Chill:   Ceiling: Unl
Heat Index:   Visibility: 10mi
Dew Point: -7°   Wind: 0mph
Humidity: 40%   Direction: NA
Pressure: 30.33"   Gusts: NA
Location:  35.51°N, 81.62°W
Report Text: KEHO 230055Z AUTO 00000KT 10SM CLR 06/M07 A3033 RMK AO2 T00621067
Loading
Personal Weather Stations






























Interactive Weather Map New forecast layout! Learn more

10-Day Weather Forecast

Advertisements
Track Severe Weather on mobile